Alexis Popot

Alexis Popot

Statistiques 2019

  • Courses courues : 15
  • Nb de victoires : -
  • Nb de places : 2
  • Écart gagnant : 19
  • Réussite à la gagne : -
  • Réussite à la place : 13%
Musique : 5a 6a 9a 6a 0a 4a 0a 9a Da 3a 5a 2a Da Da 8a (18) 5a Dista 6a
DateRangCatégorieAlloc.Dist.HippodromeChevalRed. KmSpé.
15/02/19 5 Trot 18 000€ 2 700m Graignes Feline des Ruettes 1'17''7 Attelé
13/02/19 6 Trot 18 000€ 2 350m Angers Ecclesia 1'16"2 Attelé
11/02/19 9 Trot 16 000€ 3 150m Saint Brieuc Dynamic Charm 1'17"5 Attelé
10/02/19 6 Trot 13 000€ 2 925m Challans Espoir du Scion 1'18"2 Attelé
04/02/19 0 Trot 28 000€ 3 000m Chateaubriant Vent du Scion Attelé
27/01/19 4 Trot 21 000€ 3 000m Nantes Vent du Scion 1'16"0 Attelé
21/01/19 0 Trot 17 000€ 3 175m Saint Brieuc Croma du Guibel Attelé
21/01/19 9 Trot 13 000€ 3 150m Saint Brieuc Espoir du Scion 1'19"3 Attelé
21/01/19 D Trot 13 000€ 3 175m Saint Brieuc Emotion Bleue Attelé
20/01/19 3 Trot 17 000€ 3 000m Chateaubriant Darling du Coglais 1'17"5 Attelé
20/01/19 5 Trot 15 000€ 2 400m Chateaubriant Call Jack 1'16"6 Attelé
13/01/19 2 Trot 13 000€ 2 900m Argentan Emotion Bleue 1'18"1 Attelé
13/01/19 D Trot 13 000€ 2 875m Argentan Espoir du Scion Attelé
08/01/19 D Trot 31 000€ 2 700m Vincennes Expresso Good Attelé lire

Longtemps en retrait, s'est désuni dans la montée.

01/01/19 8 Trot 54 000€ 2 850m Vincennes Agathe des Ruettes 1'14"1 Attelé lire

A figuré au sein du peloton avant de terminer honorablement.

24/12/18 5 Trot 19 000€ 2 875m Argentan Eh Pepito 1'19"1 Attelé lire

Un des animateurs, a été progressivement dominé dans la ligne droite.

21/12/18 Dist Trot 32 000€ 2 850m Vincennes Expresso Good Attelé lire

Après avoir attendu, a vivement progressé dans la montée puis s'est désuni aux abords du poteau sans avoir ses aises, alors qu'il était deuxième.

17/12/18 6 Trot 30 000€ 2 975m Le Mans Agathe des Ruettes 1'16"7 Attelé
17/12/18 7 Trot 21 000€ 2 950m Le Mans Espoir du Scion 1'19"1 Attelé
16/12/18 1 Trot 19 000€ 2 750m Cabourg Feline des Ruettes 1'17"8 Attelé
11/12/18 9 Trot 40 000€ 2 750m Cabourg Agathe des Ruettes 1'13"9 Attelé lire

Après avoir figuré, n'a pu changer de rythme dans la phase finale.

09/12/18 0 Trot 25 000€ 2 825m Vire Ami du Scion Attelé
09/12/18 4 Trot 15 000€ 2 825m Vire Eh Pepito 1'19"7 Attelé
30/11/18 0 Trot 23 000€ 2 800m Chartres Dream de Saint So Attelé
27/11/18 1 Trot 20 000€ 2 850m Mauquenchy Eagle Best 1'20"2 Attelé
27/11/18 3 Trot 30 000€ 2 850m Mauquenchy Vent du Scion 1'17"2 Attelé
25/11/18 D Trot 13 000€ 2 825m Vire Eh Pepito Attelé
19/11/18 3 Trot 12 000€ 2 750m Cabourg Espoir du Scion 1'18"3 Attelé
16/11/18 0 Trot 12 000€ 2 575m Saint Brieuc Feline des Ruettes Attelé
14/11/18 0 Trot 30 000€ 2 850m Maure De Bretagne Ami du Scion Attelé
13/11/18 D Trot 24 000€ 2 750m Cabourg Emotion Bleue Attelé
12/11/18 1 Trot 12 000€ 2 825m Vire Eh Pepito 1'18"4 Attelé
11/11/18 7 Trot 25 000€ 2 700m Graignes Call Jack 1'16"1 Attelé
11/11/18 9 Trot 13 000€ 2 700m Graignes Favorite du Derby 1'21"3 Attelé
10/11/18 8 Trot 22 000€ 2 875m Argentan First Line 1'19"1 Attelé
10/11/18 D Trot 25 000€ 2 875m Argentan Vent du Scion Attelé
09/11/18 5 Trot 25 000€ 2 875m Laval Agathe des Ruettes 1'14"5 Attelé
07/11/18 5 Trot 12 000€ 2 450m Caen Eagle Best 1'15"2 Attelé
04/11/18 7 Trot 13 000€ 2 800m Chartres Darling du Coglais 1'18"2 Attelé
04/11/18 0 Trot 22 000€ 3 325m Chartres Actrice Revee Attelé
04/11/18 D Trot 13 000€ 2 800m Chartres Dream de Saint So Attelé
04/11/18 9 Trot 13 000€ 2 800m Chartres Excalibur du Clos 1'18"3 Attelé
04/11/18 4 Trot 12 000€ 2 800m Chartres Fast Wind 1'20"8 Attelé
28/10/18 D Mixte 17 000€ 2 900m Meslay Du Maine Citan du Sound Attelé
24/10/18 D Trot 12 000€ 2 450m Caen Eagle Best Attelé
24/10/18 4 Trot 12 000€ 2 450m Caen Feline des Ruettes 1'16"8 Attelé
24/10/18 0 Trot 12 000€ 2 450m Caen Favorite du Derby Attelé
21/10/18 9 Trot 25 000€ 2 700m Graignes Crapouillot 1'16"9 Attelé
20/10/18 4 Trot 21 000€ 2 200m Caen First Line 1'15"6 Attelé
14/10/18 0 Trot 25 000€ 2 750m Ecommoy Ami du Scion Attelé